sensor_id;sensor_type;location;lat;lon;timestamp;pressure;altitude;pressure_sealevel;temperature;humidity
39613;BME280;25303;48.896;13.342;2023-04-08T00:01:50;92675.38;;;6.76;39.55
39613;BME280;25303;48.896;13.342;2023-04-08T00:04:33;92674.56;;;6.76;39.46
39613;BME280;25303;48.896;13.342;2023-04-08T00:07:16;92671.75;;;6.69;39.45
39613;BME280;25303;48.896;13.342;2023-04-08T00:09:59;92670.41;;;6.65;39.44
39613;BME280;25303;48.896;13.342;2023-04-08T00:12:42;92671.63;;;6.61;39.33
39613;BME280;25303;48.896;13.342;2023-04-08T00:15:27;92663.56;;;6.56;39.13
39613;BME280;25303;48.896;13.342;2023-04-08T00:18:10;92667.22;;;6.53;39.50
39613;BME280;25303;48.896;13.342;2023-04-08T00:20:53;92668.25;;;6.50;39.35
39613;BME280;25303;48.896;13.342;2023-04-08T00:23:37;92662.22;;;6.51;39.48
39613;BME280;25303;48.896;13.342;2023-04-08T00:26:20;92661.41;;;6.51;39.53
39613;BME280;25303;48.896;13.342;2023-04-08T00:29:03;92664.75;;;6.51;39.57
39613;BME280;25303;48.896;13.342;2023-04-08T00:31:48;92658.03;;;6.50;39.54
39613;BME280;25303;48.896;13.342;2023-04-08T00:34:31;92664.91;;;6.50;39.56
39613;BME280;25303;48.896;13.342;2023-04-08T00:37:14;92666.66;;;6.49;39.71
39613;BME280;25303;48.896;13.342;2023-04-08T00:39:56;92667.47;;;6.50;39.88
39613;BME280;25303;48.896;13.342;2023-04-08T00:42:39;92660.06;;;6.47;39.82
39613;BME280;25303;48.896;13.342;2023-04-08T00:45:22;92660.22;;;6.45;40.08
39613;BME280;25303;48.896;13.342;2023-04-08T00:48:07;92662.63;;;6.47;39.86
39613;BME280;25303;48.896;13.342;2023-04-08T00:50:49;92665.97;;;6.47;40.08
39613;BME280;25303;48.896;13.342;2023-04-08T00:53:32;92666.13;;;6.46;40.22
39613;BME280;25303;48.896;13.342;2023-04-08T00:56:15;92662.78;;;6.45;39.93
39613;BME280;25303;48.896;13.342;2023-04-08T00:58:59;92663.72;;;6.44;39.99
39613;BME280;25303;48.896;13.342;2023-04-08T01:01:48;92661.16;;;6.44;40.00
39613;BME280;25303;48.896;13.342;2023-04-08T01:04:45;92664.66;;;6.43;40.51
39613;BME280;25303;48.896;13.342;2023-04-08T01:07:33;92662.09;;;6.43;40.32
39613;BME280;25303;48.896;13.342;2023-04-08T01:10:21;92671.50;;;6.43;40.31
39613;BME280;25303;48.896;13.342;2023-04-08T01:13:06;92672.31;;;6.43;40.15
39613;BME280;25303;48.896;13.342;2023-04-08T01:15:51;92672.44;;;6.42;40.29
39613;BME280;25303;48.896;13.342;2023-04-08T01:18:36;92669.22;;;6.39;40.04
39613;BME280;25303;48.896;13.342;2023-04-08T01:21:22;92667.59;;;6.38;40.26
39613;BME280;25303;48.896;13.342;2023-04-08T01:24:10;92675.56;;;6.35;40.08
39613;BME280;25303;48.896;13.342;2023-04-08T01:26:57;92670.84;;;6.31;40.24
39613;BME280;25303;48.896;13.342;2023-04-08T01:29:42;92671.66;;;6.31;40.52
39613;BME280;25303;48.896;13.342;2023-04-08T01:32:27;92670.72;;;6.32;40.45
39613;BME280;25303;48.896;13.342;2023-04-08T01:35:11;92664.94;;;6.30;40.37
39613;BME280;25303;48.896;13.342;2023-04-08T01:37:57;92665.72;;;6.31;40.67
39613;BME280;25303;48.896;13.342;2023-04-08T01:40:41;92655.50;;;6.31;40.65
39613;BME280;25303;48.896;13.342;2023-04-08T01:43:26;92659.13;;;6.28;40.64
39613;BME280;25303;48.896;13.342;2023-04-08T01:46:11;92663.56;;;6.26;40.76
39613;BME280;25303;48.896;13.342;2023-04-08T01:48:56;92662.09;;;6.23;40.80
39613;BME280;25303;48.896;13.342;2023-04-08T01:51:42;92660.34;;;6.24;40.87
39613;BME280;25303;48.896;13.342;2023-04-08T01:54:26;92657.94;;;6.22;41.20
39613;BME280;25303;48.896;13.342;2023-04-08T01:57:13;92663.97;;;6.21;41.07
39613;BME280;25303;48.896;13.342;2023-04-08T02:00:02;92662.63;;;6.17;41.25
39613;BME280;25303;48.896;13.342;2023-04-08T02:03:01;92658.59;;;6.15;41.21
39613;BME280;25303;48.896;13.342;2023-04-08T02:05:45;92657.78;;;6.14;40.55
39613;BME280;25303;48.896;13.342;2023-04-08T02:08:28;92654.84;;;6.09;39.88
39613;BME280;25303;48.896;13.342;2023-04-08T02:11:11;92662.91;;;6.14;39.70
39613;BME280;25303;48.896;13.342;2023-04-08T02:13:54;92663.72;;;6.15;40.29
39613;BME280;25303;48.896;13.342;2023-04-08T02:16:42;92657.78;;;6.14;40.24
39613;BME280;25303;48.896;13.342;2023-04-08T02:19:35;92664.81;;;6.12;40.71
39613;BME280;25303;48.896;13.342;2023-04-08T02:22:27;92665.34;;;6.06;41.19
39613;BME280;25303;48.896;13.342;2023-04-08T02:25:13;92661.56;;;6.00;41.65
39613;BME280;25303;48.896;13.342;2023-04-08T02:27:57;92661.13;;;5.95;41.77
39613;BME280;25303;48.896;13.342;2023-04-08T02:30:43;92654.81;;;5.89;41.92
39613;BME280;25303;48.896;13.342;2023-04-08T02:33:30;92661.09;;;5.85;41.80
39613;BME280;25303;48.896;13.342;2023-04-08T02:36:14;92657.88;;;5.83;41.97
39613;BME280;25303;48.896;13.342;2023-04-08T02:38:58;92657.09;;;5.83;41.92
39613;BME280;25303;48.896;13.342;2023-04-08T02:41:41;92653.69;;;5.82;41.93
39613;BME280;25303;48.896;13.342;2023-04-08T02:44:24;92660.03;;;5.78;42.00
39613;BME280;25303;48.896;13.342;2023-04-08T02:47:08;92656.81;;;5.76;42.22
39613;BME280;25303;48.896;13.342;2023-04-08T02:49:52;92655.97;;;5.75;42.09
39613;BME280;25303;48.896;13.342;2023-04-08T02:52:35;92664.47;;;5.76;42.19
39613;BME280;25303;48.896;13.342;2023-04-08T02:55:18;92657.75;;;5.75;42.34
39613;BME280;25303;48.896;13.342;2023-04-08T02:58:01;92664.47;;;5.76;42.34
39613;BME280;25303;48.896;13.342;2023-04-08T03:00:44;92674.53;;;5.77;42.32
39613;BME280;25303;48.896;13.342;2023-04-08T03:03:27;92668.72;;;5.66;42.48
39613;BME280;25303;48.896;13.342;2023-04-08T03:06:13;92669.66;;;5.65;42.51
39613;BME280;25303;48.896;13.342;2023-04-08T03:08:56;92677.63;;;5.61;42.63
39613;BME280;25303;48.896;13.342;2023-04-08T03:11:39;92677.19;;;5.56;42.83
39613;BME280;25303;48.896;13.342;2023-04-08T03:14:22;92684.31;;;5.53;43.57
39613;BME280;25303;48.896;13.342;2023-04-08T03:17:04;92683.88;;;5.47;44.08
39613;BME280;25303;48.896;13.342;2023-04-08T03:19:48;92683.59;;;5.41;44.50
39613;BME280;25303;48.896;13.342;2023-04-08T03:22:33;92689.44;;;5.22;46.15
39613;BME280;25303;48.896;13.342;2023-04-08T03:25:16;92693.00;;;5.09;47.08
39613;BME280;25303;48.896;13.342;2023-04-08T03:27:59;92694.81;;;4.97;48.04
39613;BME280;25303;48.896;13.342;2023-04-08T03:30:42;92696.09;;;4.82;48.32
39613;BME280;25303;48.896;13.342;2023-04-08T03:33:25;92696.31;;;4.69;48.63
39613;BME280;25303;48.896;13.342;2023-04-08T03:36:08;92694.09;;;4.64;49.18
39613;BME280;25303;48.896;13.342;2023-04-08T03:38:52;92703.69;;;4.51;50.18
39613;BME280;25303;48.896;13.342;2023-04-08T03:41:35;92695.03;;;4.42;50.48
39613;BME280;25303;48.896;13.342;2023-04-08T03:44:18;92697.03;;;4.38;50.32
39613;BME280;25303;48.896;13.342;2023-04-08T03:47:01;92701.25;;;4.28;51.28
39613;BME280;25303;48.896;13.342;2023-04-08T03:49:43;92698.63;;;4.18;51.29
39613;BME280;25303;48.896;13.342;2023-04-08T03:52:26;92705.97;;;4.12;51.92
39613;BME280;25303;48.896;13.342;2023-04-08T03:55:11;92706.31;;;4.07;51.92
39613;BME280;25303;48.896;13.342;2023-04-08T03:57:53;92711.34;;;3.97;52.66
39613;BME280;25303;48.896;13.342;2023-04-08T04:00:36;92712.88;;;3.88;52.58
39613;BME280;25303;48.896;13.342;2023-04-08T04:03:19;92709.88;;;3.83;52.49
39613;BME280;25303;48.896;13.342;2023-04-08T04:06:02;92715.41;;;3.77;53.64
39613;BME280;25303;48.896;13.342;2023-04-08T04:08:45;92715.44;;;3.65;53.60
39613;BME280;25303;48.896;13.342;2023-04-08T04:11:30;92718.22;;;3.62;54.24
39613;BME280;25303;48.896;13.342;2023-04-08T04:14:13;92710.81;;;3.59;54.20
39613;BME280;25303;48.896;13.342;2023-04-08T04:16:56;92717.75;;;3.57;55.12
39613;BME280;25303;48.896;13.342;2023-04-08T04:19:39;92725.66;;;3.54;54.60
39613;BME280;25303;48.896;13.342;2023-04-08T04:22:22;92719.53;;;3.45;55.43
39613;BME280;25303;48.896;13.342;2023-04-08T04:25:05;92726.84;;;3.39;55.55
39613;BME280;25303;48.896;13.342;2023-04-08T04:27:50;92720.34;;;3.34;55.56
39613;BME280;25303;48.896;13.342;2023-04-08T04:30:35;92727.50;;;3.29;56.55
39613;BME280;25303;48.896;13.342;2023-04-08T04:33:18;92726.72;;;3.29;56.37
39613;BME280;25303;48.896;13.342;2023-04-08T04:36:02;92728.66;;;3.25;56.73
39613;BME280;25303;48.896;13.342;2023-04-08T04:38:45;92728.09;;;3.22;57.26
39613;BME280;25303;48.896;13.342;2023-04-08T04:41:31;92730.63;;;3.22;56.97
39613;BME280;25303;48.896;13.342;2023-04-08T04:44:17;92731.47;;;3.22;57.28
39613;BME280;25303;48.896;13.342;2023-04-08T04:47:00;92730.41;;;3.25;57.21
39613;BME280;25303;48.896;13.342;2023-04-08T04:49:43;92731.91;;;3.27;57.08
39613;BME280;25303;48.896;13.342;2023-04-08T04:52:26;92730.75;;;3.31;57.17
39613;BME280;25303;48.896;13.342;2023-04-08T04:55:09;92738.38;;;3.31;57.45
39613;BME280;25303;48.896;13.342;2023-04-08T04:57:52;92735.84;;;3.31;57.70
39613;BME280;25303;48.896;13.342;2023-04-08T05:00:36;92736.06;;;3.28;57.67
39613;BME280;25303;48.896;13.342;2023-04-08T05:03:19;92734.78;;;3.23;58.00
39613;BME280;25303;48.896;13.342;2023-04-08T05:06:02;92734.09;;;3.21;58.09
39613;BME280;25303;48.896;13.342;2023-04-08T05:08:45;92735.72;;;3.22;58.14
39613;BME280;25303;48.896;13.342;2023-04-08T05:11:29;92739.66;;;3.26;58.00
39613;BME280;25303;48.896;13.342;2023-04-08T05:14:11;92738.63;;;3.28;58.10
39613;BME280;25303;48.896;13.342;2023-04-08T05:16:56;92747.16;;;3.27;58.16
39613;BME280;25303;48.896;13.342;2023-04-08T05:19:39;92746.47;;;3.25;58.12
39613;BME280;25303;48.896;13.342;2023-04-08T05:22:21;92744.06;;;3.24;58.16
39613;BME280;25303;48.896;13.342;2023-04-08T05:25:05;92742.31;;;3.24;58.14
39613;BME280;25303;48.896;13.342;2023-04-08T05:27:48;92748.31;;;3.23;58.45
39613;BME280;25303;48.896;13.342;2023-04-08T05:30:31;92749.94;;;3.24;58.37
39613;BME280;25303;48.896;13.342;2023-04-08T05:33:16;92745.78;;;3.23;58.55
39613;BME280;25303;48.896;13.342;2023-04-08T05:35:59;92759.53;;;3.21;59.23
39613;BME280;25303;48.896;13.342;2023-04-08T05:38:42;92749.50;;;3.19;59.23
39613;BME280;25303;48.896;13.342;2023-04-08T05:41:25;92752.13;;;3.17;59.37
39613;BME280;25303;48.896;13.342;2023-04-08T05:44:07;92752.38;;;3.14;59.88
39613;BME280;25303;48.896;13.342;2023-04-08T05:46:50;92753.31;;;3.13;59.89
39613;BME280;25303;48.896;13.342;2023-04-08T05:49:35;92757.47;;;3.14;59.61
39613;BME280;25303;48.896;13.342;2023-04-08T05:52:18;92759.88;;;3.16;59.94
39613;BME280;25303;48.896;13.342;2023-04-08T05:55:01;92764.97;;;3.16;60.02
39613;BME280;25303;48.896;13.342;2023-04-08T05:57:44;92756.66;;;3.14;60.16
39613;BME280;25303;48.896;13.342;2023-04-08T06:00:27;92754.09;;;3.14;60.51
39613;BME280;25303;48.896;13.342;2023-04-08T06:03:10;92756.66;;;3.14;60.64
39613;BME280;25303;48.896;13.342;2023-04-08T06:05:54;92761.72;;;3.14;60.91
39613;BME280;25303;48.896;13.342;2023-04-08T06:08:37;92764.28;;;3.14;61.12
39613;BME280;25303;48.896;13.342;2023-04-08T06:11:20;92762.66;;;3.13;60.98
39613;BME280;25303;48.896;13.342;2023-04-08T06:14:03;92764.28;;;3.14;61.21
39613;BME280;25303;48.896;13.342;2023-04-08T06:16:46;92770.75;;;3.18;61.57
39613;BME280;25303;48.896;13.342;2023-04-08T06:19:29;92777.25;;;3.22;61.59
39613;BME280;25303;48.896;13.342;2023-04-08T06:22:13;92773.53;;;3.26;61.47
39613;BME280;25303;48.896;13.342;2023-04-08T06:24:56;92772.50;;;3.29;61.86
39613;BME280;25303;48.896;13.342;2023-04-08T06:27:39;92777.25;;;3.33;61.75
39613;BME280;25303;48.896;13.342;2023-04-08T06:30:22;92782.00;;;3.38;61.67
39613;BME280;25303;48.896;13.342;2023-04-08T06:33:05;92787.66;;;3.42;61.78
39613;BME280;25303;48.896;13.342;2023-04-08T06:35:48;92788.34;;;3.44;61.61
39613;BME280;25303;48.896;13.342;2023-04-08T06:38:32;92791.81;;;3.43;61.61
39613;BME280;25303;48.896;13.342;2023-04-08T06:41:15;92795.53;;;3.39;63.36
39613;BME280;25303;48.896;13.342;2023-04-08T06:43:58;92790.53;;;3.37;62.54
39613;BME280;25303;48.896;13.342;2023-04-08T06:46:41;92791.38;;;3.38;62.52
39613;BME280;25303;48.896;13.342;2023-04-08T06:49:24;92799.81;;;3.38;62.66
39613;BME280;25303;48.896;13.342;2023-04-08T06:52:07;92803.75;;;3.42;62.82
39613;BME280;25303;48.896;13.342;2023-04-08T06:54:55;92807.00;;;3.44;62.76
39613;BME280;25303;48.896;13.342;2023-04-08T06:57:37;92811.94;;;3.46;62.92
39613;BME280;25303;48.896;13.342;2023-04-08T07:00:20;92809.63;;;3.43;62.79
39613;BME280;25303;48.896;13.342;2023-04-08T07:03:03;92812.19;;;3.43;62.94
39613;BME280;25303;48.896;13.342;2023-04-08T07:05:46;92813.09;;;3.42;63.37
39613;BME280;25303;48.896;13.342;2023-04-08T07:08:29;92813.78;;;3.44;63.12
39613;BME280;25303;48.896;13.342;2023-04-08T07:11:13;92813.91;;;3.42;64.21
39613;BME280;25303;48.896;13.342;2023-04-08T07:13:56;92819.09;;;3.41;65.40
39613;BME280;25303;48.896;13.342;2023-04-08T07:16:39;92826.75;;;3.41;64.25
39613;BME280;25303;48.896;13.342;2023-04-08T07:19:22;92825.25;;;3.38;64.41
39613;BME280;25303;48.896;13.342;2023-04-08T07:22:05;92830.22;;;3.40;64.37
39613;BME280;25303;48.896;13.342;2023-04-08T07:24:48;92832.75;;;3.40;64.22
39613;BME280;25303;48.896;13.342;2023-04-08T07:27:33;92833.59;;;3.40;64.21
39613;BME280;25303;48.896;13.342;2023-04-08T07:30:17;92834.97;;;3.44;64.27
39613;BME280;25303;48.896;13.342;2023-04-08T07:33:00;92840.53;;;3.49;64.50
39613;BME280;25303;48.896;13.342;2023-04-08T07:35:42;92841.13;;;3.53;64.28
39613;BME280;25303;48.896;13.342;2023-04-08T07:38:26;92829.41;;;3.50;64.31
39613;BME280;25303;48.896;13.342;2023-04-08T07:41:09;92831.75;;;3.54;64.55
39613;BME280;25303;48.896;13.342;2023-04-08T07:43:53;92823.88;;;3.57;64.72
39613;BME280;25303;48.896;13.342;2023-04-08T07:46:36;92835.31;;;3.62;64.85
39613;BME280;25303;48.896;13.342;2023-04-08T07:49:20;92833.81;;;3.71;64.67
39613;BME280;25303;48.896;13.342;2023-04-08T07:52:03;92831.53;;;3.79;64.57
39613;BME280;25303;48.896;13.342;2023-04-08T07:54:46;92831.88;;;3.86;64.64
39613;BME280;25303;48.896;13.342;2023-04-08T07:57:29;92836.97;;;3.86;64.74
39613;BME280;25303;48.896;13.342;2023-04-08T08:00:14;92839.59;;;3.85;64.77
39613;BME280;25303;48.896;13.342;2023-04-08T08:03:02;92840.31;;;3.87;64.41
39613;BME280;25303;48.896;13.342;2023-04-08T08:05:45;92841.78;;;3.89;64.90
39613;BME280;25303;48.896;13.342;2023-04-08T08:08:28;92841.56;;;3.92;64.79
39613;BME280;25303;48.896;13.342;2023-04-08T08:11:13;92845.03;;;3.91;64.91
39613;BME280;25303;48.896;13.342;2023-04-08T08:13:57;92844.72;;;3.96;64.89
39613;BME280;25303;48.896;13.342;2023-04-08T08:16:41;92847.81;;;4.00;64.87
39613;BME280;25303;48.896;13.342;2023-04-08T08:19:25;92854.31;;;4.04;64.88
39613;BME280;25303;48.896;13.342;2023-04-08T08:22:08;92843.78;;;4.08;64.90
39613;BME280;25303;48.896;13.342;2023-04-08T08:24:56;92849.31;;;4.14;65.10
39613;BME280;25303;48.896;13.342;2023-04-08T08:27:39;92858.69;;;4.13;65.36
39613;BME280;25303;48.896;13.342;2023-04-08T08:30:23;92854.66;;;4.10;65.20
39613;BME280;25303;48.896;13.342;2023-04-08T08:33:08;92855.69;;;4.08;65.41
39613;BME280;25303;48.896;13.342;2023-04-08T08:35:51;92858.94;;;4.10;66.47
39613;BME280;25303;48.896;13.342;2023-04-08T08:38:34;92867.16;;;4.14;65.52
39613;BME280;25303;48.896;13.342;2023-04-08T08:41:17;92860.09;;;4.17;65.12
39613;BME280;25303;48.896;13.342;2023-04-08T08:44:01;92862.28;;;4.22;65.13
39613;BME280;25303;48.896;13.342;2023-04-08T08:46:46;92865.28;;;4.27;65.04
39613;BME280;25303;48.896;13.342;2023-04-08T08:49:30;92871.75;;;4.31;65.43
39613;BME280;25303;48.896;13.342;2023-04-08T08:52:15;92866.31;;;4.36;64.93
39613;BME280;25303;48.896;13.342;2023-04-08T08:54:59;92867.34;;;4.45;65.20
39613;BME280;25303;48.896;13.342;2023-04-08T08:57:45;92866.06;;;4.50;65.29
39613;BME280;25303;48.896;13.342;2023-04-08T09:00:32;92868.09;;;4.56;65.62
39613;BME280;25303;48.896;13.342;2023-04-08T09:03:17;92869.50;;;4.61;65.72
39613;BME280;25303;48.896;13.342;2023-04-08T09:06:02;92880.00;;;4.67;65.73
39613;BME280;25303;48.896;13.342;2023-04-08T09:08:47;92876.75;;;4.77;65.35
39613;BME280;25303;48.896;13.342;2023-04-08T09:11:30;92880.44;;;4.84;65.11
39613;BME280;25303;48.896;13.342;2023-04-08T09:14:18;92880.50;;;4.94;65.23
39613;BME280;25303;48.896;13.342;2023-04-08T09:17:01;92885.13;;;5.00;65.05
39613;BME280;25303;48.896;13.342;2023-04-08T09:20:05;92886.38;;;5.06;65.63
39613;BME280;25303;48.896;13.342;2023-04-08T09:22:57;92882.53;;;5.11;65.36
39613;BME280;25303;48.896;13.342;2023-04-08T09:25:40;92887.38;;;5.14;64.96
39613;BME280;25303;48.896;13.342;2023-04-08T09:28:23;92890.50;;;5.18;64.98
39613;BME280;25303;48.896;13.342;2023-04-08T09:31:21;92888.50;;;5.22;65.01
39613;BME280;25303;48.896;13.342;2023-04-08T09:34:09;92894.28;;;5.24;65.00
39613;BME280;25303;48.896;13.342;2023-04-08T09:36:53;92887.09;;;5.29;64.81
39613;BME280;25303;48.896;13.342;2023-04-08T09:39:39;92893.44;;;5.35;65.03
39613;BME280;25303;48.896;13.342;2023-04-08T09:42:22;92895.38;;;5.42;65.02
39613;BME280;25303;48.896;13.342;2023-04-08T09:45:05;92893.81;;;5.51;64.93
39613;BME280;25303;48.896;13.342;2023-04-08T09:47:55;92891.31;;;5.61;64.90
39613;BME280;25303;48.896;13.342;2023-04-08T09:50:42;92892.84;;;5.73;64.47
39613;BME280;25303;48.896;13.342;2023-04-08T09:53:33;92889.13;;;5.77;64.08
39613;BME280;25303;48.896;13.342;2023-04-08T09:56:18;92898.59;;;5.87;64.14
39613;BME280;25303;48.896;13.342;2023-04-08T09:59:02;92903.31;;;5.91;64.15
39613;BME280;25303;48.896;13.342;2023-04-08T10:01:52;92905.72;;;5.93;63.60
39613;BME280;25303;48.896;13.342;2023-04-08T10:04:37;92909.22;;;5.92;63.28
39613;BME280;25303;48.896;13.342;2023-04-08T10:07:21;92906.66;;;5.92;63.37
39613;BME280;25303;48.896;13.342;2023-04-08T10:10:05;92914.63;;;5.99;63.42
39613;BME280;25303;48.896;13.342;2023-04-08T10:12:50;92914.41;;;6.02;64.01
39613;BME280;25303;48.896;13.342;2023-04-08T10:15:33;92916.38;;;5.98;64.33
39613;BME280;25303;48.896;13.342;2023-04-08T10:18:38;92918.22;;;5.86;63.91
39613;BME280;25303;48.896;13.342;2023-04-08T10:21:31;92918.28;;;5.75;64.34
39613;BME280;25303;48.896;13.342;2023-04-08T10:24:14;92913.63;;;5.59;64.71
39613;BME280;25303;48.896;13.342;2023-04-08T10:26:59;92914.94;;;5.53;64.52
39613;BME280;25303;48.896;13.342;2023-04-08T10:29:45;92907.03;;;5.56;64.49
39613;BME280;25303;48.896;13.342;2023-04-08T10:32:29;92918.47;;;5.62;64.63
39613;BME280;25303;48.896;13.342;2023-04-08T10:35:13;92914.44;;;5.59;65.43
39613;BME280;25303;48.896;13.342;2023-04-08T10:37:56;92922.19;;;5.58;65.09
39613;BME280;25303;48.896;13.342;2023-04-08T10:40:40;92918.53;;;5.51;65.36
39613;BME280;25303;48.896;13.342;2023-04-08T10:43:24;92925.81;;;5.34;66.24
39613;BME280;25303;48.896;13.342;2023-04-08T10:46:10;92918.59;;;5.39;66.69
39613;BME280;25303;48.896;13.342;2023-04-08T10:48:58;92930.94;;;5.34;66.44
39613;BME280;25303;48.896;13.342;2023-04-08T10:51:42;92932.28;;;5.38;65.92
39613;BME280;25303;48.896;13.342;2023-04-08T10:54:25;92935.66;;;5.39;65.90
39613;BME280;25303;48.896;13.342;2023-04-08T10:57:09;92934.34;;;5.44;65.74
39613;BME280;25303;48.896;13.342;2023-04-08T10:59:51;92940.69;;;5.50;65.74
39613;BME280;25303;48.896;13.342;2023-04-08T11:02:38;92935.50;;;5.52;65.48
39613;BME280;25303;48.896;13.342;2023-04-08T11:05:21;92936.03;;;5.55;65.72
39613;BME280;25303;48.896;13.342;2023-04-08T11:08:05;92944.16;;;5.60;65.46
39613;BME280;25303;48.896;13.342;2023-04-08T11:10:48;92937.72;;;5.66;65.41
39613;BME280;25303;48.896;13.342;2023-04-08T11:13:32;92933.84;;;5.72;65.02
39613;BME280;25303;48.896;13.342;2023-04-08T11:16:15;92938.47;;;5.78;65.00
39613;BME280;25303;48.896;13.342;2023-04-08T11:19:01;92940.91;;;5.80;64.69
39613;BME280;25303;48.896;13.342;2023-04-08T11:21:45;92947.75;;;5.79;64.81
39613;BME280;25303;48.896;13.342;2023-04-08T11:24:28;92948.41;;;5.81;64.51
39613;BME280;25303;48.896;13.342;2023-04-08T11:27:12;92949.25;;;5.82;64.48
39613;BME280;25303;48.896;13.342;2023-04-08T11:29:56;92953.44;;;5.83;64.08
39613;BME280;25303;48.896;13.342;2023-04-08T11:32:39;92954.34;;;5.82;63.75
39613;BME280;25303;48.896;13.342;2023-04-08T11:35:27;92953.66;;;5.80;63.53
39613;BME280;25303;48.896;13.342;2023-04-08T11:38:10;92958.34;;;5.74;62.89
39613;BME280;25303;48.896;13.342;2023-04-08T11:40:55;92953.59;;;5.70;62.93
39613;BME280;25303;48.896;13.342;2023-04-08T11:43:50;92956.28;;;5.68;63.14
39613;BME280;25303;48.896;13.342;2023-04-08T11:46:33;92958.84;;;5.68;62.79
39613;BME280;25303;48.896;13.342;2023-04-08T11:49:16;92958.97;;;5.67;63.10
39613;BME280;25303;48.896;13.342;2023-04-08T11:52:01;92959.78;;;5.67;63.18
39613;BME280;25303;48.896;13.342;2023-04-08T11:54:43;92962.19;;;5.69;62.95
39613;BME280;25303;48.896;13.342;2023-04-08T11:57:27;92956.97;;;5.70;63.10
39613;BME280;25303;48.896;13.342;2023-04-08T12:00:11;92962.75;;;5.72;62.96
39613;BME280;25303;48.896;13.342;2023-04-08T12:02:54;92961.03;;;5.73;63.01
39613;BME280;25303;48.896;13.342;2023-04-08T12:05:37;92958.09;;;5.77;63.07
39613;BME280;25303;48.896;13.342;2023-04-08T12:08:22;92957.97;;;5.79;62.97
39613;BME280;25303;48.896;13.342;2023-04-08T12:11:05;92961.47;;;5.78;62.51
39613;BME280;25303;48.896;13.342;2023-04-08T12:14:00;92960.53;;;5.79;62.30
39613;BME280;25303;48.896;13.342;2023-04-08T12:16:43;92959.41;;;5.72;62.18
39613;BME280;25303;48.896;13.342;2023-04-08T12:19:26;92965.59;;;5.69;61.83
39613;BME280;25303;48.896;13.342;2023-04-08T12:22:09;92965.81;;;5.66;61.86
39613;BME280;25303;48.896;13.342;2023-04-08T12:24:53;92972.78;;;5.64;62.05
39613;BME280;25303;48.896;13.342;2023-04-08T12:27:39;92968.06;;;5.59;61.68
39613;BME280;25303;48.896;13.342;2023-04-08T12:30:22;92974.91;;;5.59;61.49
39613;BME280;25303;48.896;13.342;2023-04-08T12:33:05;92973.16;;;5.59;61.83
39613;BME280;25303;48.896;13.342;2023-04-08T12:35:48;92978.38;;;5.58;61.44
39613;BME280;25303;48.896;13.342;2023-04-08T12:38:31;92984.44;;;5.57;61.43
39613;BME280;25303;48.896;13.342;2023-04-08T12:41:16;92976.53;;;5.60;61.59
39613;BME280;25303;48.896;13.342;2023-04-08T12:43:59;92986.50;;;5.63;61.70
39613;BME280;25303;48.896;13.342;2023-04-08T12:46:42;92986.56;;;5.73;61.86
39613;BME280;25303;48.896;13.342;2023-04-08T12:49:25;92989.31;;;5.81;61.91
39613;BME280;25303;48.896;13.342;2023-04-08T12:52:08;92985.19;;;5.90;61.91
39613;BME280;25303;48.896;13.342;2023-04-08T12:54:51;92984.16;;;5.92;61.52
39613;BME280;25303;48.896;13.342;2023-04-08T12:57:35;92975.66;;;5.92;60.81
39613;BME280;25303;48.896;13.342;2023-04-08T13:00:18;92979.38;;;5.88;60.75
39613;BME280;25303;48.896;13.342;2023-04-08T13:03:02;92974.41;;;5.86;60.92
39613;BME280;25303;48.896;13.342;2023-04-08T13:05:45;92977.47;;;5.80;60.46
39613;BME280;25303;48.896;13.342;2023-04-08T13:08:28;92984.94;;;5.72;60.60
39613;BME280;25303;48.896;13.342;2023-04-08T13:11:10;92981.94;;;5.67;60.48
39613;BME280;25303;48.896;13.342;2023-04-08T13:13:55;92982.31;;;5.62;60.32
39613;BME280;25303;48.896;13.342;2023-04-08T13:16:38;92982.81;;;5.56;60.66
39613;BME280;25303;48.896;13.342;2023-04-08T13:19:21;92982.16;;;5.54;60.50
39613;BME280;25303;48.896;13.342;2023-04-08T13:22:04;92981.13;;;5.45;60.30
39613;BME280;25303;48.896;13.342;2023-04-08T13:24:47;92988.34;;;5.40;60.34
39613;BME280;25303;48.896;13.342;2023-04-08T13:27:29;92986.03;;;5.37;61.02
39613;BME280;25303;48.896;13.342;2023-04-08T13:30:14;92993.56;;;5.38;60.92
39613;BME280;25303;48.896;13.342;2023-04-08T13:32:57;92996.94;;;5.39;61.11
39613;BME280;25303;48.896;13.342;2023-04-08T13:35:40;92990.06;;;5.39;61.31
39613;BME280;25303;48.896;13.342;2023-04-08T13:38:22;92996.94;;;5.39;60.97
39613;BME280;25303;48.896;13.342;2023-04-08T13:41:06;92991.00;;;5.38;60.84
39613;BME280;25303;48.896;13.342;2023-04-08T13:43:48;92998.41;;;5.41;61.07
39613;BME280;25303;48.896;13.342;2023-04-08T13:46:33;92998.19;;;5.44;61.29
39613;BME280;25303;48.896;13.342;2023-04-08T13:49:15;93000.94;;;5.53;61.44
39613;BME280;25303;48.896;13.342;2023-04-08T13:51:59;93004.50;;;5.61;61.32
39613;BME280;25303;48.896;13.342;2023-04-08T13:54:41;93006.44;;;5.69;61.33
39613;BME280;25303;48.896;13.342;2023-04-08T13:57:24;93001.66;;;5.76;61.08
39613;BME280;25303;48.896;13.342;2023-04-08T14:00:08;93008.00;;;5.82;60.74
39613;BME280;25303;48.896;13.342;2023-04-08T14:02:53;93006.53;;;5.79;59.88
39613;BME280;25303;48.896;13.342;2023-04-08T14:05:36;93008.94;;;5.81;60.53
39613;BME280;25303;48.896;13.342;2023-04-08T14:08:19;93009.50;;;5.84;60.35
39613;BME280;25303;48.896;13.342;2023-04-08T14:11:06;93005.22;;;5.85;60.49
39613;BME280;25303;48.896;13.342;2023-04-08T14:13:49;93000.66;;;5.88;60.01
39613;BME280;25303;48.896;13.342;2023-04-08T14:16:32;93008.47;;;5.87;59.99
39613;BME280;25303;48.896;13.342;2023-04-08T14:19:17;93011.00;;;5.87;60.08
39613;BME280;25303;48.896;13.342;2023-04-08T14:22:00;93008.69;;;5.84;59.91
39613;BME280;25303;48.896;13.342;2023-04-08T14:24:43;93020.41;;;5.86;60.04
39613;BME280;25303;48.896;13.342;2023-04-08T14:27:26;93018.16;;;5.93;60.18
39613;BME280;25303;48.896;13.342;2023-04-08T14:30:09;93019.19;;;6.02;60.22